createdAt,value
2018-03-30T00:00:55.020Z,0.00
2018-03-30T00:01:54.970Z,0.00
2018-03-30T00:02:54.917Z,0.00
2018-03-30T00:03:54.867Z,0.00
2018-03-30T00:04:54.816Z,0.00
2018-03-30T00:05:54.766Z,0.00
2018-03-30T00:06:54.714Z,0.00
2018-03-30T00:07:54.667Z,0.00
2018-03-30T00:08:54.615Z,0.00
2018-03-30T00:09:54.562Z,0.00
2018-03-30T00:10:54.511Z,0.00
2018-03-30T00:11:54.461Z,0.00
2018-03-30T00:12:54.410Z,0.00
2018-03-30T00:13:54.360Z,0.00
2018-03-30T00:14:54.308Z,0.00
2018-03-30T00:15:54.257Z,0.00
2018-03-30T00:16:54.207Z,0.00
2018-03-30T00:17:54.155Z,0.00
2018-03-30T00:18:54.104Z,0.00
2018-03-30T00:19:54.054Z,0.00
2018-03-30T00:20:54.003Z,0.00
2018-03-30T00:21:53.955Z,0.00
2018-03-30T00:22:53.902Z,0.00
2018-03-30T00:23:53.851Z,0.00
2018-03-30T00:24:53.800Z,0.00
2018-03-30T00:25:53.754Z,0.00
2018-03-30T00:26:53.699Z,0.00
2018-03-30T00:27:53.648Z,0.00
2018-03-30T00:28:53.599Z,0.00
2018-03-30T00:29:53.547Z,0.00
2018-03-30T00:30:53.495Z,0.00
2018-03-30T00:31:53.447Z,0.00
2018-03-30T00:32:53.394Z,0.00
2018-03-30T00:33:53.347Z,0.00
2018-03-30T00:34:53.292Z,0.00
2018-03-30T00:35:53.241Z,0.00
2018-03-30T00:36:53.191Z,0.00
2018-03-30T00:37:53.147Z,0.00
2018-03-30T00:38:53.088Z,0.00
2018-03-30T00:39:53.038Z,0.00
2018-03-30T00:40:52.987Z,0.00
2018-03-30T00:41:52.937Z,0.00
2018-03-30T00:42:52.910Z,0.00
2018-03-30T00:43:52.835Z,0.00
2018-03-30T00:44:52.784Z,0.00
2018-03-30T00:45:52.733Z,0.00
2018-03-30T00:46:52.681Z,0.00
2018-03-30T00:47:52.636Z,0.00
2018-03-30T00:48:52.630Z,0.00
2018-03-30T00:49:52.533Z,0.00
2018-03-30T00:50:52.477Z,0.00
2018-03-30T00:51:52.427Z,0.00
2018-03-30T00:52:52.376Z,0.00
2018-03-30T00:53:52.326Z,0.00
2018-03-30T00:54:52.276Z,0.00
2018-03-30T00:55:52.226Z,0.00
2018-03-30T00:56:52.173Z,0.00
2018-03-30T00:57:52.120Z,0.00
2018-03-30T00:58:52.070Z,0.00
2018-03-30T00:59:52.019Z,0.00
2018-03-30T01:00:51.968Z,0.00
2018-03-30T01:01:51.918Z,0.00
2018-03-30T01:02:51.865Z,0.00
2018-03-30T01:03:51.816Z,0.00
2018-03-30T01:04:51.815Z,0.00
2018-03-30T01:05:51.714Z,0.00
2018-03-30T01:06:51.662Z,0.00
2018-03-30T01:07:51.612Z,0.00
2018-03-30T01:08:51.560Z,0.00
2018-03-30T01:09:51.510Z,0.00
2018-03-30T01:10:51.458Z,0.00
2018-03-30T01:11:51.408Z,0.00
2018-03-30T01:12:51.356Z,0.00
2018-03-30T01:13:51.306Z,0.00
2018-03-30T01:14:51.255Z,0.00
2018-03-30T01:15:51.204Z,0.00
2018-03-30T01:16:51.156Z,0.00
2018-03-30T01:17:51.102Z,0.00
2018-03-30T01:18:51.050Z,0.00
2018-03-30T01:19:51.007Z,0.00
2018-03-30T01:20:50.948Z,0.00
2018-03-30T01:21:50.897Z,0.00
2018-03-30T01:22:50.845Z,0.00
2018-03-30T01:23:50.794Z,0.00
2018-03-30T01:24:50.743Z,0.00
2018-03-30T01:25:50.692Z,0.00
2018-03-30T01:26:50.640Z,0.00
2018-03-30T01:27:50.590Z,0.00
2018-03-30T01:28:50.538Z,0.00
2018-03-30T01:29:50.487Z,0.00
2018-03-30T01:30:50.435Z,0.00
2018-03-30T01:31:50.384Z,0.00
2018-03-30T01:32:50.332Z,0.00
2018-03-30T01:33:50.282Z,0.00
2018-03-30T01:34:50.230Z,0.00
2018-03-30T01:35:50.178Z,0.00
2018-03-30T01:36:50.126Z,0.00
2018-03-30T01:37:50.076Z,0.00
2018-03-30T01:38:50.024Z,0.00
2018-03-30T01:39:49.972Z,0.00
2018-03-30T01:40:49.923Z,0.00
2018-03-30T01:41:49.870Z,0.00
2018-03-30T01:42:49.817Z,0.00
2018-03-30T01:43:49.771Z,0.00
2018-03-30T01:44:49.715Z,0.00
2018-03-30T01:45:49.663Z,0.00
2018-03-30T01:46:49.611Z,0.00
2018-03-30T01:47:49.560Z,0.00
2018-03-30T01:48:49.508Z,0.00
2018-03-30T01:49:49.457Z,0.00
2018-03-30T01:50:49.405Z,0.00
2018-03-30T01:51:49.353Z,0.00
2018-03-30T01:52:49.304Z,0.00
2018-03-30T01:53:49.251Z,0.00
2018-03-30T01:54:49.198Z,0.00
2018-03-30T01:55:49.147Z,0.00
2018-03-30T01:56:49.096Z,0.00
2018-03-30T01:57:49.044Z,0.00
2018-03-30T01:58:48.992Z,0.00
2018-03-30T01:59:48.940Z,0.00
2018-03-30T02:00:48.898Z,0.00
2018-03-30T02:01:48.838Z,0.00
2018-03-30T02:02:48.786Z,0.00
2018-03-30T02:03:48.733Z,0.00
2018-03-30T02:04:48.687Z,0.00
2018-03-30T02:05:48.630Z,0.00
2018-03-30T02:06:48.577Z,0.00
2018-03-30T02:07:48.526Z,0.00
2018-03-30T02:08:48.475Z,0.00
2018-03-30T02:09:48.423Z,0.00
2018-03-30T02:10:48.373Z,0.00
2018-03-30T02:11:48.319Z,0.00
2018-03-30T02:12:48.268Z,0.00
2018-03-30T02:13:48.216Z,0.00
2018-03-30T02:14:48.165Z,0.00
2018-03-30T02:15:48.112Z,0.00
2018-03-30T02:16:48.060Z,0.00
2018-03-30T02:17:48.063Z,0.00
2018-03-30T02:18:47.956Z,0.00
2018-03-30T02:19:47.905Z,0.00
2018-03-30T02:20:47.853Z,0.00
2018-03-30T02:21:47.802Z,0.00
2018-03-30T02:22:47.749Z,0.00
2018-03-30T02:23:47.704Z,0.00
2018-03-30T02:24:47.645Z,0.00
2018-03-30T02:25:47.648Z,0.00
2018-03-30T02:26:47.541Z,0.00
2018-03-30T02:27:47.493Z,0.00
2018-03-30T02:28:47.438Z,0.00
2018-03-30T02:29:47.385Z,0.00
2018-03-30T02:30:47.333Z,0.00
2018-03-30T02:31:47.283Z,0.00
2018-03-30T02:32:47.230Z,0.00
2018-03-30T02:33:47.179Z,0.00
2018-03-30T02:34:47.127Z,0.00
2018-03-30T02:35:47.076Z,0.00
2018-03-30T02:36:47.024Z,0.00
2018-03-30T02:37:46.971Z,0.00
2018-03-30T02:38:46.919Z,0.00
2018-03-30T02:39:46.867Z,0.00
2018-03-30T02:40:46.817Z,0.00
2018-03-30T02:41:46.768Z,0.00
2018-03-30T02:42:46.711Z,0.00
2018-03-30T02:43:46.661Z,0.00
2018-03-30T02:44:46.611Z,0.00
2018-03-30T02:45:46.557Z,0.00
2018-03-30T02:46:46.504Z,0.00
2018-03-30T02:47:46.464Z,0.00
2018-03-30T02:48:46.401Z,0.00
2018-03-30T02:49:46.387Z,0.00
2018-03-30T02:50:46.297Z,0.00
2018-03-30T02:51:46.247Z,0.00
2018-03-30T02:52:46.195Z,0.00
2018-03-30T02:53:46.143Z,0.00
2018-03-30T02:54:46.090Z,0.00
2018-03-30T02:55:46.039Z,0.00
2018-03-30T02:56:45.986Z,0.00
2018-03-30T02:57:45.934Z,0.00
2018-03-30T02:58:45.883Z,0.00
2018-03-30T02:59:45.832Z,0.00
2018-03-30T03:00:45.788Z,0.00
2018-03-30T03:01:45.728Z,0.00
2018-03-30T03:02:45.676Z,0.00
2018-03-30T03:03:45.625Z,0.00
2018-03-30T03:04:45.579Z,0.00
2018-03-30T03:05:45.521Z,0.00
2018-03-30T03:06:45.468Z,0.00
2018-03-30T03:07:45.416Z,0.00
2018-03-30T03:08:45.365Z,0.00
2018-03-30T03:09:45.314Z,0.00
2018-03-30T03:10:45.260Z,0.00
2018-03-30T03:11:45.209Z,0.00
2018-03-30T03:12:45.158Z,0.00
2018-03-30T03:13:45.106Z,0.00
2018-03-30T03:14:45.056Z,0.00
2018-03-30T03:15:45.007Z,0.00
2018-03-30T03:16:44.951Z,0.00
2018-03-30T03:17:44.899Z,0.00
2018-03-30T03:18:44.845Z,0.00
2018-03-30T03:19:44.797Z,0.00
2018-03-30T03:20:44.747Z,0.00
2018-03-30T03:21:44.695Z,0.00
2018-03-30T03:22:44.638Z,0.00
2018-03-30T03:23:44.587Z,0.00
2018-03-30T03:24:44.535Z,0.00
2018-03-30T03:25:44.490Z,0.00
2018-03-30T03:26:44.432Z,0.00
2018-03-30T03:27:44.379Z,0.00
2018-03-30T03:28:44.329Z,0.00
2018-03-30T03:29:44.275Z,0.00
2018-03-30T03:30:44.224Z,0.00
2018-03-30T03:31:44.173Z,0.00
2018-03-30T03:32:44.120Z,0.00
2018-03-30T03:33:44.068Z,0.00
2018-03-30T03:34:44.026Z,0.00
2018-03-30T03:35:43.963Z,0.00
2018-03-30T03:36:43.911Z,0.00
2018-03-30T03:37:43.859Z,0.00
2018-03-30T03:38:43.806Z,0.00
2018-03-30T03:39:43.755Z,0.00
2018-03-30T03:40:43.703Z,0.00
2018-03-30T03:41:43.653Z,0.00
2018-03-30T03:42:43.598Z,0.00
2018-03-30T03:43:43.547Z,0.00
2018-03-30T03:44:43.494Z,0.00
2018-03-30T03:45:43.442Z,0.00
2018-03-30T03:46:43.389Z,0.00
2018-03-30T03:47:43.338Z,0.00
2018-03-30T03:48:43.291Z,0.00
2018-03-30T03:49:43.234Z,0.00
2018-03-30T03:50:43.180Z,0.00
2018-03-30T03:51:43.128Z,0.00
2018-03-30T03:52:43.076Z,0.00
2018-03-30T03:53:43.025Z,0.00
2018-03-30T03:54:42.971Z,0.00
2018-03-30T03:55:42.920Z,0.00
2018-03-30T03:56:42.870Z,0.00
2018-03-30T03:57:42.815Z,0.00
2018-03-30T03:58:42.762Z,0.00
2018-03-30T03:59:42.710Z,0.00
2018-03-30T04:00:42.658Z,0.00
2018-03-30T04:01:42.606Z,0.00
2018-03-30T04:02:42.553Z,0.00
2018-03-30T04:03:42.501Z,0.00
2018-03-30T04:04:42.450Z,0.00
2018-03-30T04:05:42.409Z,0.00
2018-03-30T04:06:42.344Z,0.00
2018-03-30T04:07:42.293Z,0.00
2018-03-30T04:08:42.242Z,0.00
2018-03-30T04:09:42.186Z,0.00
2018-03-30T04:10:42.134Z,0.00
2018-03-30T04:11:42.082Z,0.00
2018-03-30T04:12:42.035Z,4.00
2018-03-30T04:13:41.981Z,4.00
2018-03-30T04:14:41.924Z,0.00
2018-03-30T04:15:41.872Z,4.00
2018-03-30T04:16:41.820Z,4.00
2018-03-30T04:17:41.768Z,4.00
2018-03-30T04:18:41.714Z,8.00
2018-03-30T04:19:41.662Z,8.00
2018-03-30T04:20:41.610Z,8.00
2018-03-30T04:21:41.557Z,8.00
2018-03-30T04:22:41.504Z,8.00
2018-03-30T04:23:41.456Z,12.00
2018-03-30T04:24:41.400Z,16.00
2018-03-30T04:25:41.348Z,16.00
2018-03-30T04:26:41.294Z,16.00
2018-03-30T04:27:41.242Z,24.00
2018-03-30T04:28:41.189Z,28.00
2018-03-30T04:29:41.137Z,32.00
2018-03-30T04:30:41.084Z,36.00
2018-03-30T04:31:41.032Z,40.00
2018-03-30T04:32:40.985Z,48.00
2018-03-30T04:33:40.931Z,56.00
2018-03-30T04:34:40.874Z,64.00
2018-03-30T04:35:40.821Z,72.00
2018-03-30T04:36:40.773Z,84.00
2018-03-30T04:37:40.717Z,92.00
2018-03-30T04:38:40.664Z,104.00
2018-03-30T04:39:40.612Z,112.00
2018-03-30T04:40:40.559Z,128.00
2018-03-30T04:41:40.506Z,140.00
2018-03-30T04:42:40.453Z,160.00
2018-03-30T04:43:40.401Z,180.00
2018-03-30T04:44:40.349Z,196.00
2018-03-30T04:45:40.298Z,212.00
2018-03-30T04:46:40.244Z,232.00
2018-03-30T04:47:40.191Z,252.00
2018-03-30T04:48:40.141Z,276.00
2018-03-30T04:49:40.087Z,304.00
2018-03-30T04:50:40.033Z,332.00
2018-03-30T04:51:39.981Z,360.00
2018-03-30T04:52:39.928Z,388.00
2018-03-30T04:53:39.876Z,416.00
2018-03-30T04:54:39.823Z,436.00
2018-03-30T04:55:39.770Z,468.00
2018-03-30T04:56:39.718Z,492.00
2018-03-30T04:57:39.666Z,528.00
2018-03-30T04:58:39.613Z,576.00
2018-03-30T04:59:39.561Z,632.00
2018-03-30T05:00:39.511Z,680.00
2018-03-30T05:01:39.456Z,728.00
2018-03-30T05:02:39.412Z,788.00
2018-03-30T05:03:39.350Z,844.00
2018-03-30T05:04:39.298Z,888.00
2018-03-30T05:05:39.246Z,952.00
2018-03-30T05:06:39.193Z,1012.00
2018-03-30T05:07:39.141Z,1044.00
2018-03-30T05:08:39.089Z,1100.00
2018-03-30T05:09:39.037Z,1132.00
2018-03-30T05:10:38.985Z,1180.00
2018-03-30T05:11:38.932Z,1240.00
2018-03-30T05:12:38.880Z,1332.00
2018-03-30T05:13:38.828Z,1424.00
2018-03-30T05:14:38.775Z,1532.00
2018-03-30T05:15:38.723Z,1632.00
2018-03-30T05:16:38.673Z,1732.00
2018-03-30T05:17:38.669Z,1860.00
2018-03-30T05:18:38.568Z,1996.00
2018-03-30T05:19:38.514Z,2088.00
2018-03-30T05:20:38.462Z,2196.00
2018-03-30T05:21:38.411Z,2372.00
2018-03-30T05:22:38.358Z,2532.00
2018-03-30T05:23:38.306Z,2652.00
2018-03-30T05:24:38.257Z,2816.00
2018-03-30T05:25:38.203Z,2900.00
2018-03-30T05:26:38.150Z,2980.00
2018-03-30T05:27:38.098Z,3028.00
2018-03-30T05:28:38.047Z,3096.00
2018-03-30T05:29:37.995Z,3216.00
2018-03-30T05:30:37.942Z,3364.00
2018-03-30T05:31:37.891Z,3568.00
2018-03-30T05:32:37.840Z,3816.00
2018-03-30T05:33:37.788Z,3968.00
2018-03-30T05:34:37.736Z,4120.00
2018-03-30T05:35:37.687Z,4292.00
2018-03-30T05:36:37.638Z,4380.00
2018-03-30T05:37:37.581Z,4500.00
2018-03-30T05:38:37.529Z,4596.00
2018-03-30T05:39:37.477Z,4696.00
2018-03-30T05:40:37.426Z,4816.00
2018-03-30T05:41:37.375Z,4960.00
2018-03-30T05:42:37.322Z,5092.00
2018-03-30T05:43:37.271Z,5244.00
2018-03-30T05:44:37.227Z,5512.00
2018-03-30T05:45:37.169Z,5736.00
2018-03-30T05:46:37.116Z,5940.00
2018-03-30T05:47:37.067Z,6088.00
2018-03-30T05:48:37.014Z,6132.00
2018-03-30T05:49:36.964Z,6060.00
2018-03-30T05:50:36.911Z,5980.00
2018-03-30T05:51:36.860Z,5964.00
2018-03-30T05:52:36.810Z,6024.00
2018-03-30T05:53:36.759Z,6104.00
2018-03-30T05:54:36.711Z,6204.00
2018-03-30T05:55:36.656Z,6280.00
2018-03-30T05:56:36.605Z,6304.00
2018-03-30T05:57:36.555Z,6228.00
2018-03-30T05:58:36.503Z,6048.00
2018-03-30T05:59:36.453Z,5956.00
2018-03-30T06:00:36.408Z,6072.00
2018-03-30T06:01:36.358Z,6200.00
2018-03-30T06:02:36.302Z,6364.00
2018-03-30T06:03:36.254Z,6516.00
2018-03-30T06:04:36.200Z,6608.00
2018-03-30T06:05:36.149Z,6844.00
2018-03-30T06:06:36.098Z,7480.00
2018-03-30T06:07:36.051Z,7804.00
2018-03-30T06:08:35.997Z,8056.00
2018-03-30T06:09:35.947Z,8512.00
2018-03-30T06:10:35.895Z,8632.00
2018-03-30T06:11:35.845Z,8588.00
2018-03-30T06:12:35.794Z,8992.00
2018-03-30T06:13:35.744Z,9072.00
2018-03-30T06:14:35.693Z,8952.00
2018-03-30T06:15:35.643Z,9212.00
2018-03-30T06:16:35.593Z,9856.00
2018-03-30T06:17:35.553Z,10288.00
2018-03-30T06:18:35.492Z,10516.00
2018-03-30T06:19:35.442Z,10540.00
2018-03-30T06:20:35.392Z,10776.00
2018-03-30T06:21:35.342Z,11104.00
2018-03-30T06:22:35.292Z,11744.00
2018-03-30T06:23:35.242Z,13356.00
2018-03-30T06:24:35.193Z,13168.00
2018-03-30T06:25:35.143Z,14108.00
2018-03-30T06:26:35.095Z,17312.00
2018-03-30T06:27:35.045Z,17728.00
2018-03-30T06:28:34.995Z,17152.00
2018-03-30T06:29:34.947Z,16352.00
2018-03-30T06:30:34.897Z,14912.00
2018-03-30T06:31:34.848Z,14064.00
2018-03-30T06:32:34.801Z,15008.00
2018-03-30T06:33:34.752Z,14528.00
2018-03-30T06:34:34.702Z,16160.00
2018-03-30T06:35:34.659Z,17568.00
2018-03-30T06:36:34.607Z,20320.00
2018-03-30T06:37:34.559Z,21440.00
2018-03-30T06:38:34.510Z,23712.00
2018-03-30T06:39:34.464Z,23776.00
2018-03-30T06:40:34.417Z,23808.00
2018-03-30T06:41:34.370Z,23008.00
2018-03-30T06:42:34.322Z,23584.00
2018-03-30T06:43:34.276Z,23456.00
2018-03-30T06:44:34.229Z,21536.00
2018-03-30T06:45:34.184Z,20640.00
2018-03-30T06:46:34.137Z,20352.00
2018-03-30T06:47:34.092Z,20928.00
2018-03-30T06:48:34.047Z,19232.00
2018-03-30T06:49:34.002Z,18496.00
2018-03-30T06:50:33.956Z,20480.00
2018-03-30T06:51:33.911Z,22528.00
2018-03-30T06:52:33.868Z,23840.00
2018-03-30T06:53:33.823Z,24512.00
2018-03-30T06:54:33.777Z,25632.00
2018-03-30T06:55:33.735Z,26176.00
2018-03-30T06:56:33.688Z,27040.00
2018-03-30T06:57:33.645Z,28544.00
2018-03-30T06:58:33.640Z,28224.00
2018-03-30T06:59:33.556Z,26464.00
2018-03-30T07:00:33.514Z,26720.00
2018-03-30T07:01:33.469Z,27424.00
2018-03-30T07:02:33.424Z,28672.00
2018-03-30T07:03:33.381Z,30080.00
2018-03-30T07:04:33.338Z,32032.00
2018-03-30T07:05:33.296Z,32960.00
2018-03-30T07:06:33.255Z,32032.00
2018-03-30T07:07:33.209Z,30368.00
2018-03-30T07:08:33.166Z,26816.00
2018-03-30T07:09:33.124Z,25376.00
2018-03-30T07:10:33.081Z,23168.00
2018-03-30T07:11:33.090Z,20288.00
2018-03-30T07:12:33.001Z,19392.00
2018-03-30T07:13:32.955Z,20128.00
2018-03-30T07:14:32.911Z,19904.00
2018-03-30T07:15:32.871Z,20704.00
2018-03-30T07:16:32.827Z,22304.00
2018-03-30T07:17:32.785Z,23456.00
2018-03-30T07:18:32.741Z,24256.00
2018-03-30T07:19:32.699Z,24800.00
2018-03-30T07:20:32.658Z,25664.00
2018-03-30T07:21:32.655Z,27584.00
2018-03-30T07:22:32.613Z,29312.00
2018-03-30T07:23:32.529Z,28544.00
2018-03-30T07:24:32.488Z,28800.00
2018-03-30T07:25:32.444Z,28896.00
2018-03-30T07:26:32.408Z,27680.00
2018-03-30T07:27:32.358Z,29408.00
2018-03-30T07:28:32.317Z,29600.00
2018-03-30T07:29:32.274Z,27968.00
2018-03-30T07:30:32.231Z,30336.00
2018-03-30T07:31:32.189Z,29568.00
2018-03-30T07:32:32.147Z,29376.00
2018-03-30T07:33:32.104Z,27904.00
2018-03-30T07:34:32.061Z,27392.00
2018-03-30T07:35:32.020Z,31168.00
2018-03-30T07:36:31.977Z,33984.00
2018-03-30T07:37:31.935Z,34496.00
2018-03-30T07:38:31.892Z,37184.00
2018-03-30T07:39:31.848Z,38656.00
2018-03-30T07:40:31.808Z,39968.00
2018-03-30T07:41:31.770Z,38496.00
2018-03-30T07:42:31.724Z,39072.00
2018-03-30T07:43:31.696Z,39872.00
2018-03-30T07:44:31.641Z,42048.00
2018-03-30T07:45:31.605Z,44480.00
2018-03-30T07:46:31.560Z,45600.00
2018-03-30T07:47:31.518Z,45792.00
2018-03-30T07:48:31.478Z,44352.00
2018-03-30T07:49:31.437Z,39520.00
2018-03-30T07:50:31.395Z,35200.00
2018-03-30T07:51:31.360Z,31744.00
2018-03-30T07:52:31.316Z,28352.00
2018-03-30T07:53:31.277Z,28672.00
2018-03-30T07:54:31.236Z,28224.00
2018-03-30T07:55:31.198Z,28032.00
2018-03-30T07:56:31.158Z,27488.00
2018-03-30T07:57:31.118Z,28864.00
2018-03-30T07:58:31.077Z,27904.00
2018-03-30T07:59:31.037Z,29344.00
2018-03-30T08:00:30.997Z,27872.00
2018-03-30T08:01:30.963Z,23616.00
2018-03-30T08:02:30.919Z,23776.00
2018-03-30T08:03:30.937Z,25344.00
2018-03-30T08:04:30.836Z,27488.00
2018-03-30T08:05:30.796Z,27936.00
2018-03-30T08:06:30.762Z,28288.00
2018-03-30T08:07:30.721Z,30304.00
2018-03-30T08:08:30.674Z,30848.00
2018-03-30T08:09:30.633Z,31712.00
2018-03-30T08:10:30.592Z,30816.00
2018-03-30T08:11:30.557Z,28960.00
2018-03-30T08:12:30.512Z,28256.00
2018-03-30T08:13:30.520Z,27104.00
2018-03-30T08:14:30.429Z,27104.00
2018-03-30T08:15:30.389Z,28544.00
2018-03-30T08:16:30.347Z,30720.00
2018-03-30T08:17:30.307Z,28800.00
2018-03-30T08:18:30.266Z,28032.00
2018-03-30T08:19:30.225Z,27776.00
2018-03-30T08:20:30.185Z,33120.00
2018-03-30T08:21:30.145Z,35616.00
2018-03-30T08:22:30.150Z,31008.00
2018-03-30T08:23:30.063Z,28864.00
2018-03-30T08:24:30.022Z,36192.00
2018-03-30T08:25:29.988Z,46624.00
2018-03-30T08:26:29.939Z,52192.00
2018-03-30T08:27:29.900Z,55648.00
2018-03-30T08:28:29.859Z,55104.00
2018-03-30T08:29:29.819Z,56192.00
2018-03-30T08:30:29.788Z,57472.00
2018-03-30T08:31:29.740Z,57408.00
2018-03-30T08:32:29.700Z,54112.00
2018-03-30T08:33:29.661Z,50400.00
2018-03-30T08:34:29.622Z,49376.00
2018-03-30T08:35:29.583Z,41344.00
2018-03-30T08:36:29.551Z,41920.00
2018-03-30T08:37:29.507Z,45952.00
2018-03-30T08:38:29.468Z,48192.00
2018-03-30T08:39:29.431Z,48416.00
2018-03-30T08:40:29.397Z,50336.00
2018-03-30T08:41:29.356Z,50240.00
2018-03-30T08:42:29.317Z,51520.00
2018-03-30T08:43:29.280Z,53856.00
2018-03-30T08:44:29.243Z,57856.00
2018-03-30T08:45:29.207Z,62336.00
2018-03-30T08:46:29.171Z,60384.00
2018-03-30T08:47:29.132Z,58464.00
2018-03-30T08:48:29.096Z,57600.00
2018-03-30T08:49:29.059Z,57664.00
2018-03-30T08:50:29.022Z,58720.00
2018-03-30T08:51:28.985Z,54624.00
2018-03-30T08:52:28.948Z,49152.00
2018-03-30T08:53:28.911Z,44640.00
2018-03-30T08:54:28.876Z,44000.00
2018-03-30T08:55:28.837Z,41760.00
2018-03-30T08:56:28.800Z,38784.00
2018-03-30T08:57:28.763Z,37600.00
2018-03-30T08:58:28.726Z,35776.00
2018-03-30T08:59:28.689Z,35040.00
2018-03-30T09:00:28.652Z,33792.00
2018-03-30T09:01:28.615Z,33056.00
2018-03-30T09:02:28.575Z,33152.00
2018-03-30T09:03:28.538Z,30112.00
2018-03-30T09:04:28.500Z,35808.00
2018-03-30T09:05:28.562Z,32000.00
2018-03-30T09:06:28.423Z,33184.00
2018-03-30T09:07:28.385Z,29472.00
2018-03-30T09:08:28.346Z,33728.00
2018-03-30T09:09:28.307Z,28288.00
2018-03-30T09:10:28.267Z,26272.00
2018-03-30T09:11:28.228Z,28832.00
2018-03-30T09:12:28.191Z,28352.00
2018-03-30T09:13:28.148Z,28256.00
2018-03-30T09:14:28.108Z,28192.00
2018-03-30T09:15:28.067Z,26304.00
2018-03-30T09:16:28.027Z,26464.00
2018-03-30T09:17:27.987Z,26496.00
2018-03-30T09:18:27.945Z,24448.00
2018-03-30T09:19:27.904Z,22048.00
2018-03-30T09:20:27.871Z,22816.00
2018-03-30T09:21:27.823Z,20736.00
2018-03-30T09:22:27.781Z,20384.00
2018-03-30T09:23:27.739Z,21280.00
2018-03-30T09:24:27.698Z,20672.00
2018-03-30T09:25:27.657Z,20640.00
2018-03-30T09:26:27.620Z,19904.00
2018-03-30T09:27:27.572Z,19136.00
2018-03-30T09:28:27.535Z,19712.00
2018-03-30T09:29:27.493Z,19904.00
2018-03-30T09:30:27.450Z,19648.00
2018-03-30T09:31:27.404Z,18848.00
2018-03-30T09:32:27.364Z,19040.00
2018-03-30T09:33:27.319Z,18848.00
2018-03-30T09:34:27.279Z,18496.00
2018-03-30T09:35:27.233Z,18528.00
2018-03-30T09:36:27.191Z,18048.00
2018-03-30T09:37:27.148Z,18176.00
2018-03-30T09:38:27.103Z,18144.00
2018-03-30T09:39:27.061Z,17152.00
2018-03-30T09:40:27.018Z,16416.00
2018-03-30T09:41:26.974Z,15708.00
2018-03-30T09:42:26.932Z,15364.00
2018-03-30T09:43:26.887Z,15004.00
2018-03-30T09:44:26.845Z,14692.00
2018-03-30T09:45:26.799Z,14392.00
2018-03-30T09:46:26.755Z,14196.00
2018-03-30T09:47:26.760Z,14108.00
2018-03-30T09:48:26.667Z,14060.00
2018-03-30T09:49:26.623Z,14088.00
2018-03-30T09:50:26.578Z,14192.00
2018-03-30T09:51:26.534Z,14336.00
2018-03-30T09:52:26.490Z,14508.00
2018-03-30T09:53:26.446Z,14688.00
2018-03-30T09:54:26.400Z,14844.00
2018-03-30T09:55:26.356Z,14976.00
2018-03-30T09:56:26.324Z,15048.00
2018-03-30T09:57:26.268Z,15116.00
2018-03-30T09:58:26.222Z,15320.00
2018-03-30T09:59:26.179Z,15528.00
2018-03-30T10:00:26.133Z,15748.00
2018-03-30T10:01:26.089Z,15836.00
2018-03-30T10:02:26.044Z,15960.00
2018-03-30T10:03:25.999Z,16136.00
2018-03-30T10:04:25.955Z,16480.00
2018-03-30T10:05:25.910Z,16864.00
2018-03-30T10:06:25.868Z,17312.00
2018-03-30T10:07:25.820Z,17824.00
2018-03-30T10:08:25.775Z,18272.00
2018-03-30T10:09:25.730Z,18560.00
2018-03-30T10:10:25.685Z,18816.00
2018-03-30T10:11:25.641Z,18880.00
2018-03-30T10:12:25.596Z,19040.00
2018-03-30T10:13:25.552Z,18944.00
2018-03-30T10:14:25.508Z,19008.00
2018-03-30T10:15:25.461Z,18912.00
2018-03-30T10:16:25.425Z,18848.00
2018-03-30T10:17:25.374Z,18592.00
2018-03-30T10:18:25.332Z,18304.00
2018-03-30T10:19:25.284Z,17888.00
2018-03-30T10:20:25.238Z,17824.00
2018-03-30T10:21:25.194Z,17696.00
2018-03-30T10:22:25.149Z,18496.00
2018-03-30T10:23:25.105Z,18592.00
2018-03-30T10:24:25.076Z,18784.00
2018-03-30T10:25:25.017Z,18816.00
2018-03-30T10:26:24.971Z,19104.00
2018-03-30T10:27:24.929Z,18144.00
2018-03-30T10:28:24.886Z,18304.00
2018-03-30T10:29:24.839Z,18720.00
2018-03-30T10:30:24.795Z,18624.00
2018-03-30T10:31:24.754Z,18848.00
2018-03-30T10:32:24.708Z,18784.00
2018-03-30T10:33:24.663Z,18592.00
2018-03-30T10:34:24.618Z,18336.00
2018-03-30T10:35:24.574Z,18336.00
2018-03-30T10:36:24.534Z,18144.00
2018-03-30T10:37:24.487Z,17952.00
2018-03-30T10:38:24.442Z,17824.00
2018-03-30T10:39:24.400Z,17760.00
2018-03-30T10:40:24.355Z,17632.00
2018-03-30T10:41:24.311Z,17184.00
2018-03-30T10:42:24.270Z,17056.00
2018-03-30T10:43:24.223Z,16216.00
2018-03-30T10:44:24.180Z,15932.00
2018-03-30T10:45:24.135Z,15704.00
2018-03-30T10:46:24.091Z,15356.00
2018-03-30T10:47:24.048Z,15408.00
2018-03-30T10:48:24.003Z,15204.00
2018-03-30T10:49:23.960Z,14812.00
2018-03-30T10:50:23.915Z,14920.00
2018-03-30T10:51:23.872Z,14752.00
2018-03-30T10:52:23.828Z,14644.00
2018-03-30T10:53:23.785Z,14160.00
2018-03-30T10:54:23.740Z,13896.00
2018-03-30T10:55:23.699Z,13492.00
2018-03-30T10:56:23.653Z,13144.00
2018-03-30T10:57:23.609Z,12880.00
2018-03-30T10:58:23.564Z,12636.00
2018-03-30T10:59:23.520Z,12464.00
2018-03-30T11:00:23.481Z,12260.00
2018-03-30T11:01:23.432Z,12172.00
2018-03-30T11:02:23.387Z,12312.00
2018-03-30T11:03:23.344Z,12676.00
2018-03-30T11:04:23.301Z,12472.00
2018-03-30T11:05:23.305Z,12076.00
2018-03-30T11:06:23.213Z,11524.00
2018-03-30T11:07:23.165Z,10848.00
2018-03-30T11:08:23.206Z,10656.00
2018-03-30T11:09:23.078Z,10432.00
2018-03-30T11:10:23.031Z,10044.00
2018-03-30T11:11:22.988Z,9676.00
2018-03-30T11:12:22.943Z,9480.00
2018-03-30T11:13:22.898Z,9400.00
2018-03-30T11:14:22.858Z,9356.00
2018-03-30T11:15:22.808Z,9324.00
2018-03-30T11:16:22.764Z,9264.00
2018-03-30T11:17:22.725Z,9200.00
2018-03-30T11:18:22.674Z,9080.00
2018-03-30T11:19:22.629Z,8964.00
2018-03-30T11:20:22.585Z,8852.00
2018-03-30T11:21:22.540Z,8704.00
2018-03-30T11:22:22.495Z,8548.00
2018-03-30T11:23:22.450Z,8388.00
2018-03-30T11:24:22.405Z,8180.00
2018-03-30T11:25:22.361Z,7988.00
2018-03-30T11:26:22.317Z,7824.00
2018-03-30T11:27:22.271Z,7668.00
2018-03-30T11:28:22.226Z,7532.00
2018-03-30T11:29:22.181Z,7416.00
2018-03-30T11:30:22.135Z,7312.00
2018-03-30T11:31:22.090Z,7220.00
2018-03-30T11:32:22.045Z,7128.00
2018-03-30T11:33:22.000Z,7020.00
2018-03-30T11:34:21.954Z,6904.00
2018-03-30T11:35:21.909Z,6788.00
2018-03-30T11:36:21.897Z,6660.00
2018-03-30T11:37:21.819Z,6548.00
2018-03-30T11:38:21.773Z,6448.00
2018-03-30T11:39:21.728Z,6372.00
2018-03-30T11:40:21.682Z,6304.00
2018-03-30T11:41:21.638Z,6248.00
2018-03-30T11:42:21.591Z,6216.00
2018-03-30T11:43:21.645Z,6160.00
2018-03-30T11:44:21.499Z,6108.00
2018-03-30T11:45:21.460Z,6064.00
2018-03-30T11:46:21.407Z,6020.00
2018-03-30T11:47:21.361Z,5976.00
2018-03-30T11:48:21.317Z,5896.00
2018-03-30T11:49:21.270Z,5856.00
2018-03-30T11:50:21.223Z,5800.00
2018-03-30T11:51:21.177Z,5736.00
2018-03-30T11:52:21.131Z,5676.00
2018-03-30T11:53:21.084Z,5620.00
2018-03-30T11:54:21.041Z,5596.00
2018-03-30T11:55:20.992Z,5588.00
2018-03-30T11:56:20.945Z,5556.00
2018-03-30T11:57:20.905Z,5528.00
2018-03-30T11:58:20.853Z,5488.00
2018-03-30T11:59:20.807Z,5456.00
2018-03-30T12:00:20.761Z,5400.00
2018-03-30T12:01:20.715Z,5340.00
2018-03-30T12:02:20.668Z,5296.00
2018-03-30T12:03:20.621Z,5284.00
2018-03-30T12:04:20.583Z,5236.00
2018-03-30T12:05:20.528Z,5160.00
2018-03-30T12:06:20.481Z,5144.00
2018-03-30T12:07:20.435Z,5128.00
2018-03-30T12:08:20.389Z,5120.00
2018-03-30T12:09:20.345Z,5108.00
2018-03-30T12:10:20.296Z,5104.00
2018-03-30T12:11:20.251Z,5100.00
2018-03-30T12:12:20.204Z,5084.00
2018-03-30T12:13:20.158Z,5060.00
2018-03-30T12:14:20.111Z,5024.00
2018-03-30T12:15:20.065Z,4992.00
2018-03-30T12:16:20.018Z,4968.00
2018-03-30T12:17:19.972Z,4940.00
2018-03-30T12:18:19.925Z,4936.00
2018-03-30T12:19:19.879Z,4928.00
2018-03-30T12:20:19.833Z,4928.00
2018-03-30T12:21:19.787Z,4932.00
2018-03-30T12:22:19.740Z,4924.00